createdAt,value
2023-02-27T00:00:32.697Z,102267.20
2023-02-27T00:01:54.109Z,102265.38
2023-02-27T00:02:55.765Z,102266.08
2023-02-27T00:03:57.459Z,102269.73
2023-02-27T00:05:00.410Z,102270.70
2023-02-27T00:06:02.018Z,102267.97
2023-02-27T00:07:03.599Z,102270.86
2023-02-27T00:08:05.020Z,102272.98
2023-02-27T00:09:06.524Z,102272.56
2023-02-27T00:10:10.077Z,102270.53
2023-02-27T00:11:11.972Z,102269.86
2023-02-27T00:12:13.429Z,102272.02
2023-02-27T00:13:14.986Z,102273.20
2023-02-27T00:14:16.945Z,102276.48
2023-02-27T00:15:20.029Z,102271.05
2023-02-27T00:16:21.764Z,102273.85
2023-02-27T00:17:27.284Z,102273.11
2023-02-27T00:18:28.690Z,102272.54
2023-02-27T00:19:30.343Z,102271.67
2023-02-27T00:20:37.379Z,102273.20
2023-02-27T00:21:39.359Z,102274.45
2023-02-27T00:22:41.894Z,102274.11
2023-02-27T00:23:43.366Z,102273.23
2023-02-27T00:24:45.027Z,102273.73
2023-02-27T00:25:46.752Z,102273.79
2023-02-27T00:26:48.397Z,102274.56
2023-02-27T00:27:49.873Z,102271.50
2023-02-27T00:28:51.450Z,102273.17
2023-02-27T00:29:52.913Z,102271.59
2023-02-27T00:30:54.893Z,102273.30
2023-02-27T00:31:57.449Z,102271.54
2023-02-27T00:32:59.495Z,102273.70
2023-02-27T00:34:01.101Z,102278.60
2023-02-27T00:35:04.549Z,102275.33
2023-02-27T00:36:06.149Z,102276.50
2023-02-27T00:37:08.925Z,102277.35
2023-02-27T00:38:10.471Z,102281.14
2023-02-27T00:39:11.911Z,102281.88
2023-02-27T00:40:14.421Z,102283.74
2023-02-27T00:41:15.866Z,102288.60
2023-02-27T00:42:17.752Z,102292.58
2023-02-27T00:43:21.089Z,102292.17
2023-02-27T00:44:22.543Z,102296.59
2023-02-27T00:45:24.058Z,102297.14
2023-02-27T00:46:25.578Z,102301.91
2023-02-27T00:47:27.394Z,102298.98
2023-02-27T00:48:28.872Z,102301.23
2023-02-27T00:49:30.386Z,102301.80
2023-02-27T00:50:31.867Z,102297.56
2023-02-27T00:51:33.376Z,102301.27
2023-02-27T00:52:38.747Z,102305.19
2023-02-27T00:53:40.531Z,102308.23
2023-02-27T00:54:42.117Z,102304.90
2023-02-27T00:55:43.725Z,102308.23
2023-02-27T00:56:45.357Z,102311.66
2023-02-27T00:57:47.000Z,102317.60
2023-02-27T00:58:48.532Z,102323.21
2023-02-27T00:59:49.989Z,102328.33
2023-02-27T01:00:51.489Z,102327.57
2023-02-27T01:01:52.994Z,102320.09
2023-02-27T01:02:54.624Z,102327.14
2023-02-27T01:03:56.160Z,102321.02
2023-02-27T01:04:57.706Z,102319.25
2023-02-27T01:05:59.334Z,102317.45
2023-02-27T01:07:01.304Z,102316.11
2023-02-27T01:08:03.089Z,102315.20
2023-02-27T01:09:04.862Z,102313.80
2023-02-27T01:10:08.114Z,102312.70
2023-02-27T01:11:12.693Z,102306.39
2023-02-27T01:12:14.276Z,102302.15
2023-02-27T01:13:15.745Z,102300.70
2023-02-27T01:14:17.544Z,102302.58
2023-02-27T01:15:20.292Z,102300.56
2023-02-27T01:16:23.142Z,102299.41
2023-02-27T01:17:26.643Z,102299.39
2023-02-27T01:18:28.219Z,102303.18
2023-02-27T01:19:30.481Z,102306.32
2023-02-27T01:20:33.104Z,102307.95
2023-02-27T01:21:34.637Z,102308.66
2023-02-27T01:22:36.435Z,102310.34
2023-02-27T01:23:37.863Z,102305.36
2023-02-27T01:24:39.519Z,102308.36
2023-02-27T01:25:41.315Z,102309.11
2023-02-27T01:26:44.166Z,102311.42
2023-02-27T01:27:45.860Z,102311.02
2023-02-27T01:28:47.402Z,102312.04
2023-02-27T01:29:48.869Z,102314.05
2023-02-27T01:30:50.979Z,102316.33
2023-02-27T01:31:52.933Z,102317.69
2023-02-27T01:32:54.761Z,102313.64
2023-02-27T01:33:56.281Z,102312.46
2023-02-27T01:34:57.918Z,102311.83
2023-02-27T01:36:01.068Z,102309.61
2023-02-27T01:37:02.918Z,102314.63
2023-02-27T01:38:04.504Z,102316.27
2023-02-27T01:39:06.560Z,102317.83
2023-02-27T01:40:09.099Z,102319.08
2023-02-27T01:41:10.828Z,102319.35
2023-02-27T01:42:22.208Z,102320.05
2023-02-27T01:43:24.293Z,102324.70
2023-02-27T01:44:29.559Z,102323.29
2023-02-27T01:45:38.858Z,102322.98
2023-02-27T01:46:41.623Z,102325.42
2023-02-27T01:47:52.390Z,102324.50
2023-02-27T01:48:59.120Z,102321.80
2023-02-27T01:50:00.622Z,102326.52
2023-02-27T01:51:10.971Z,102331.54
2023-02-27T01:52:14.595Z,102331.77
2023-02-27T01:53:18.624Z,102333.45
2023-02-27T01:54:24.969Z,102333.45
2023-02-27T01:55:29.604Z,102333.02
2023-02-27T01:56:32.627Z,102334.41
2023-02-27T01:57:35.531Z,102334.67
2023-02-27T01:58:37.768Z,102334.25
2023-02-27T01:59:41.949Z,102335.79
2023-02-27T02:00:43.642Z,102336.27
2023-02-27T02:01:46.887Z,102330.97
2023-02-27T02:03:04.149Z,102331.52
2023-02-27T02:04:18.271Z,102331.05
2023-02-27T02:05:21.808Z,102335.27
2023-02-27T02:06:24.274Z,102338.17
2023-02-27T02:07:27.720Z,102337.38
2023-02-27T02:08:36.195Z,102341.54
2023-02-27T02:09:43.225Z,102343.36
2023-02-27T02:10:47.346Z,102343.29
2023-02-27T02:11:51.733Z,102345.73
2023-02-27T02:12:53.365Z,102344.06
2023-02-27T02:13:58.877Z,102346.65
2023-02-27T02:15:00.359Z,102345.95
2023-02-27T02:16:30.903Z,102345.34
2023-02-27T02:18:07.467Z,102345.41
2023-02-27T02:19:38.338Z,102342.27
2023-02-27T02:20:53.028Z,102337.04
2023-02-27T02:22:13.403Z,102335.14
2023-02-27T02:23:17.585Z,102330.39
2023-02-27T02:25:04.631Z,102330.17
2023-02-27T02:26:39.192Z,102332.38
2023-02-27T02:27:51.960Z,102334.02
2023-02-27T02:29:08.607Z,102333.17
2023-02-27T02:32:02.905Z,102336.25
2023-02-27T02:33:39.616Z,102337.04
2023-02-27T02:35:07.235Z,102340.69
2023-02-27T02:36:14.672Z,102341.96
2023-02-27T02:37:16.849Z,102343.43
2023-02-27T02:38:21.504Z,102343.16
2023-02-27T02:39:55.157Z,102347.33
2023-02-27T02:41:04.548Z,102348.97
2023-02-27T02:42:36.037Z,102351.21
2023-02-27T02:43:43.035Z,102350.57
2023-02-27T02:45:32.769Z,102354.09
2023-02-27T02:46:51.999Z,102364.09
2023-02-27T02:48:16.420Z,102366.82
2023-02-27T02:49:33.702Z,102370.85
2023-02-27T02:50:43.781Z,102373.86
2023-02-27T02:52:30.508Z,102375.21
2023-02-27T02:53:46.930Z,102375.23
2023-02-27T02:55:00.403Z,102375.23
2023-02-27T02:56:25.797Z,102372.93
2023-02-27T02:57:40.264Z,102370.85
2023-02-27T02:58:54.487Z,102369.08
2023-02-27T03:00:01.933Z,102370.49
2023-02-27T03:01:16.040Z,102366.89
2023-02-27T03:02:23.687Z,102365.91
2023-02-27T03:03:31.111Z,102365.22
2023-02-27T03:04:49.503Z,102368.40
2023-02-27T03:06:16.577Z,102369.30
2023-02-27T03:07:37.009Z,102369.26
2023-02-27T03:08:51.374Z,102368.16
2023-02-27T03:09:56.909Z,102367.59
2023-02-27T03:11:03.132Z,102368.44
2023-02-27T03:12:09.499Z,102371.20
2023-02-27T03:13:30.197Z,102370.89
2023-02-27T03:14:36.120Z,102368.76
2023-02-27T03:15:47.068Z,102370.23
2023-02-27T03:16:53.711Z,102372.73
2023-02-27T03:18:04.030Z,102373.25
2023-02-27T03:19:18.235Z,102378.30
2023-02-27T03:20:28.678Z,102378.97
2023-02-27T03:21:39.530Z,102378.42
2023-02-27T03:22:46.009Z,102382.50
2023-02-27T03:23:49.586Z,102383.39
2023-02-27T03:24:54.918Z,102384.56
2023-02-27T03:25:58.541Z,102385.39
2023-02-27T03:27:03.612Z,102388.79
2023-02-27T03:28:10.577Z,102395.14
2023-02-27T03:29:19.752Z,102394.17
2023-02-27T03:30:43.710Z,102396.66
2023-02-27T03:32:04.068Z,102397.62
2023-02-27T03:33:20.922Z,102404.37
2023-02-27T03:34:34.972Z,102404.99
2023-02-27T03:35:51.267Z,102404.18
2023-02-27T03:37:14.456Z,102403.45
2023-02-27T03:38:31.774Z,102404.34
2023-02-27T03:39:58.204Z,102411.80
2023-02-27T03:41:07.872Z,102408.83
2023-02-27T03:42:28.310Z,102409.59
2023-02-27T03:44:11.484Z,102409.25
2023-02-27T03:45:33.113Z,102409.38
2023-02-27T03:46:35.824Z,102411.96
2023-02-27T03:47:37.558Z,102411.78
2023-02-27T03:48:43.790Z,102409.67
2023-02-27T03:49:45.869Z,102410.55
2023-02-27T03:50:47.822Z,102408.06
2023-02-27T03:51:49.465Z,102409.30
2023-02-27T03:52:51.248Z,102407.98
2023-02-27T03:54:05.208Z,102411.23
2023-02-27T03:55:15.324Z,102413.41
2023-02-27T03:56:22.826Z,102416.69
2023-02-27T03:57:25.828Z,102415.95
2023-02-27T03:58:27.625Z,102420.34
2023-02-27T03:59:30.746Z,102421.26
2023-02-27T04:00:33.108Z,102425.30
2023-02-27T04:01:34.622Z,102422.23
2023-02-27T04:02:36.116Z,102423.76
2023-02-27T04:03:45.699Z,102424.54
2023-02-27T04:04:51.283Z,102426.66
2023-02-27T04:06:34.772Z,102426.31
2023-02-27T04:07:57.892Z,102427.48
2023-02-27T04:09:28.095Z,102432.53
2023-02-27T04:11:07.069Z,102430.45
2023-02-27T04:12:11.822Z,102433.67
2023-02-27T04:13:19.495Z,102431.86
2023-02-27T04:14:33.182Z,102430.40
2023-02-27T04:15:53.162Z,102430.35
2023-02-27T04:17:08.138Z,102431.19
2023-02-27T04:18:26.755Z,102434.27
2023-02-27T04:19:53.881Z,102432.46
2023-02-27T04:21:10.700Z,102431.80
2023-02-27T04:22:34.615Z,102430.69
2023-02-27T04:23:51.230Z,102433.09
2023-02-27T04:25:08.028Z,102437.89
2023-02-27T04:26:28.242Z,102441.13
2023-02-27T04:27:35.807Z,102440.48
2023-02-27T04:28:45.948Z,102442.69
2023-02-27T04:29:59.228Z,102439.77
2023-02-27T04:31:04.060Z,102440.45
2023-02-27T04:32:09.382Z,102441.98
2023-02-27T04:33:39.484Z,102441.86
2023-02-27T04:34:44.877Z,102443.39
2023-02-27T04:35:49.558Z,102440.95
2023-02-27T04:37:07.798Z,102442.28
2023-02-27T04:38:19.724Z,102442.69
2023-02-27T04:39:25.578Z,102445.87
2023-02-27T04:40:34.928Z,102445.34
2023-02-27T04:42:00.248Z,102447.39
2023-02-27T04:43:06.948Z,102443.44
2023-02-27T04:44:12.028Z,102447.66
2023-02-27T04:45:18.133Z,102448.08
2023-02-27T04:46:24.728Z,102450.30
2023-02-27T04:47:31.759Z,102448.23
2023-02-27T04:48:38.209Z,102451.27
2023-02-27T04:49:45.277Z,102454.85
2023-02-27T04:50:53.400Z,102454.23
2023-02-27T04:52:20.660Z,102456.30
2023-02-27T04:53:34.255Z,102458.20
2023-02-27T04:54:43.470Z,102461.42
2023-02-27T04:55:49.589Z,102463.21
2023-02-27T04:56:55.758Z,102463.16
2023-02-27T04:58:13.409Z,102461.17
2023-02-27T04:59:26.473Z,102462.29
2023-02-27T05:00:31.242Z,102462.70
2023-02-27T05:01:40.898Z,102463.16
2023-02-27T05:02:47.417Z,102464.98
2023-02-27T05:03:52.278Z,102464.85
2023-02-27T05:04:59.411Z,102463.63
2023-02-27T05:06:02.560Z,102463.52
2023-02-27T05:07:08.841Z,102467.36
2023-02-27T05:08:25.439Z,102466.66
2023-02-27T05:10:05.444Z,102471.86
2023-02-27T05:11:29.066Z,102470.69
2023-02-27T05:12:39.839Z,102469.61
2023-02-27T05:13:48.790Z,102469.73
2023-02-27T05:15:00.007Z,102469.71
2023-02-27T05:16:12.550Z,102472.41
2023-02-27T05:17:20.303Z,102475.32
2023-02-27T05:18:23.026Z,102475.05
2023-02-27T05:19:24.939Z,102477.50
2023-02-27T05:20:35.775Z,102477.50
2023-02-27T05:22:08.356Z,102478.84
2023-02-27T05:23:48.083Z,102477.33
2023-02-27T05:24:53.614Z,102479.21
2023-02-27T05:26:02.934Z,102483.02
2023-02-27T05:27:22.936Z,102480.75
2023-02-27T05:28:34.173Z,102482.38
2023-02-27T05:29:58.237Z,102482.09
2023-02-27T05:31:06.965Z,102483.80
2023-02-27T05:32:20.829Z,102485.93
2023-02-27T05:33:38.396Z,102484.71
2023-02-27T05:34:48.786Z,102485.24
2023-02-27T05:35:56.961Z,102486.36
2023-02-27T05:37:09.956Z,102487.65
2023-02-27T05:38:22.220Z,102490.86
2023-02-27T05:39:31.634Z,102491.23
2023-02-27T05:40:43.589Z,102492.19
2023-02-27T05:41:51.472Z,102493.02
2023-02-27T05:43:26.080Z,102494.28
2023-02-27T05:44:34.196Z,102506.86
2023-02-27T05:45:38.785Z,102503.45
2023-02-27T05:46:50.058Z,102508.51
2023-02-27T05:48:01.366Z,102509.95
2023-02-27T05:49:15.272Z,102512.02
2023-02-27T05:50:22.786Z,102510.48
2023-02-27T05:51:28.364Z,102516.93
2023-02-27T05:52:31.684Z,102519.55
2023-02-27T05:53:37.292Z,102521.52
2023-02-27T05:55:05.020Z,102525.23
2023-02-27T05:56:08.263Z,102527.33
2023-02-27T05:57:15.130Z,102527.63
2023-02-27T05:58:34.681Z,102528.33
2023-02-27T05:59:52.358Z,102530.76
2023-02-27T06:01:01.603Z,102530.34
2023-02-27T06:02:03.181Z,102530.64
2023-02-27T06:03:05.058Z,102531.84
2023-02-27T06:04:06.773Z,102530.25
2023-02-27T06:05:08.461Z,102534.31
2023-02-27T06:06:15.926Z,102535.66
2023-02-27T06:07:18.538Z,102534.69
2023-02-27T06:08:21.600Z,102537.91
2023-02-27T06:09:23.273Z,102536.92
2023-02-27T06:10:25.382Z,102544.24
2023-02-27T06:11:26.893Z,102539.98
2023-02-27T06:12:28.428Z,102545.36
2023-02-27T06:13:30.047Z,102544.88
2023-02-27T06:14:31.542Z,102543.25
2023-02-27T06:15:33.089Z,102547.73
2023-02-27T06:16:37.565Z,102552.36
2023-02-27T06:17:39.527Z,102549.33
2023-02-27T06:18:41.035Z,102548.99
2023-02-27T06:19:42.937Z,102552.08
2023-02-27T06:20:45.912Z,102552.05
2023-02-27T06:21:48.089Z,102552.24
2023-02-27T06:22:49.518Z,102554.88
2023-02-27T06:23:51.109Z,102553.05
2023-02-27T06:24:52.551Z,102553.73
2023-02-27T06:25:54.072Z,102554.93
2023-02-27T06:26:55.630Z,102556.39
2023-02-27T06:27:57.203Z,102556.18
2023-02-27T06:28:59.285Z,102558.44
2023-02-27T06:30:00.856Z,102556.52
2023-02-27T06:31:02.515Z,102556.61
2023-02-27T06:32:04.204Z,102557.17
2023-02-27T06:33:05.969Z,102557.69
2023-02-27T06:34:07.530Z,102558.24
2023-02-27T06:35:09.566Z,102557.42
2023-02-27T06:36:11.109Z,102561.91
2023-02-27T06:37:12.564Z,102560.11
2023-02-27T06:38:14.236Z,102558.67
2023-02-27T06:39:16.098Z,102564.83
2023-02-27T06:40:18.578Z,102561.98
2023-02-27T06:41:20.296Z,102568.67
2023-02-27T06:42:21.893Z,102568.01
2023-02-27T06:43:23.328Z,102569.01
2023-02-27T06:44:24.763Z,102573.71
2023-02-27T06:45:26.328Z,102573.61
2023-02-27T06:46:28.131Z,102575.64
2023-02-27T06:47:29.925Z,102574.08
2023-02-27T06:48:31.637Z,102580.36
2023-02-27T06:49:33.071Z,102580.00
2023-02-27T06:50:34.835Z,102579.27
2023-02-27T06:51:36.366Z,102582.21
2023-02-27T06:52:39.126Z,102584.58
2023-02-27T06:53:40.568Z,102585.07
2023-02-27T06:54:42.022Z,102584.88
2023-02-27T06:55:43.551Z,102587.85
2023-02-27T06:56:45.348Z,102590.36
2023-02-27T06:57:47.781Z,102590.30
2023-02-27T06:58:49.288Z,102591.73
2023-02-27T06:59:50.975Z,102595.55
2023-02-27T07:00:52.484Z,102598.25
2023-02-27T07:01:54.246Z,102595.80
2023-02-27T07:02:55.730Z,102601.23
2023-02-27T07:03:57.411Z,102603.40
2023-02-27T07:04:58.923Z,102603.95
2023-02-27T07:06:01.756Z,102600.20
2023-02-27T07:07:32.400Z,102601.73
2023-02-27T07:08:25.020Z,102603.68
2023-02-27T07:09:27.650Z,102605.20
2023-02-27T07:10:30.104Z,102606.44
2023-02-27T07:11:31.811Z,102608.56
2023-02-27T07:12:33.643Z,102609.27
2023-02-27T07:13:35.903Z,102611.56
2023-02-27T07:14:37.814Z,102609.63
2023-02-27T07:15:39.670Z,102611.55
2023-02-27T07:16:41.478Z,102611.33
2023-02-27T07:17:43.158Z,102613.85
2023-02-27T07:18:44.663Z,102612.85
2023-02-27T07:19:46.141Z,102614.67
2023-02-27T07:20:50.747Z,102616.58
2023-02-27T07:21:52.260Z,102612.04
2023-02-27T07:22:53.678Z,102617.42
2023-02-27T07:23:55.124Z,102618.15
2023-02-27T07:24:56.906Z,102618.96
2023-02-27T07:25:58.318Z,102618.94
2023-02-27T07:27:00.035Z,102621.69
2023-02-27T07:28:01.917Z,102620.67
2023-02-27T07:29:04.157Z,102617.48
2023-02-27T07:30:06.631Z,102619.05
2023-02-27T07:31:08.053Z,102621.41
2023-02-27T07:32:10.509Z,102618.83
2023-02-27T07:33:12.094Z,102622.37
2023-02-27T07:34:14.931Z,102622.17
2023-02-27T07:35:16.636Z,102627.02
2023-02-27T07:36:18.213Z,102623.92
2023-02-27T07:37:19.788Z,102628.09
2023-02-27T07:38:23.372Z,102629.86
2023-02-27T07:39:24.845Z,102631.88
2023-02-27T07:40:26.639Z,102632.41
2023-02-27T07:41:31.060Z,102632.08
2023-02-27T07:42:34.776Z,102636.80
2023-02-27T07:43:36.221Z,102633.18
2023-02-27T07:44:37.739Z,102633.73
2023-02-27T07:45:39.554Z,102634.23
2023-02-27T07:46:41.001Z,102633.80
2023-02-27T07:47:42.569Z,102635.45
2023-02-27T07:48:44.009Z,102633.54
2023-02-27T07:49:45.504Z,102633.75
2023-02-27T07:50:47.164Z,102632.85
2023-02-27T07:51:48.579Z,102634.74
2023-02-27T07:52:51.524Z,102635.25
2023-02-27T07:53:53.009Z,102642.67
2023-02-27T07:54:54.499Z,102638.27
2023-02-27T07:55:55.978Z,102640.67
2023-02-27T07:56:57.457Z,102642.85
2023-02-27T07:57:59.113Z,102637.34
2023-02-27T07:59:00.837Z,102641.48
2023-02-27T08:00:05.845Z,102643.57
2023-02-27T08:01:13.286Z,102643.84
2023-02-27T08:02:14.881Z,102643.52
2023-02-27T08:03:16.327Z,102643.27
2023-02-27T08:04:17.956Z,102641.85
2023-02-27T08:05:19.355Z,102641.56
2023-02-27T08:06:21.207Z,102644.02
2023-02-27T08:07:22.680Z,102641.66
2023-02-27T08:08:24.303Z,102642.91
2023-02-27T08:09:25.816Z,102645.33
2023-02-27T08:10:27.376Z,102646.23
2023-02-27T08:11:29.156Z,102648.44
2023-02-27T08:12:30.970Z,102642.66
2023-02-27T08:13:58.978Z,102648.42
2023-02-27T08:14:53.968Z,102649.48
2023-02-27T08:15:55.652Z,102646.86
2023-02-27T08:16:57.207Z,102648.71
2023-02-27T08:17:58.857Z,102651.06
2023-02-27T08:19:00.622Z,102650.55
2023-02-27T08:20:04.190Z,102651.95
2023-02-27T08:21:06.246Z,102650.65
2023-02-27T08:22:07.840Z,102651.07
2023-02-27T08:23:09.357Z,102656.11
2023-02-27T08:24:10.933Z,102649.91
2023-02-27T08:25:12.362Z,102651.14
2023-02-27T08:26:16.680Z,102650.45
2023-02-27T08:27:18.351Z,102651.40
2023-02-27T08:28:19.837Z,102657.17
2023-02-27T08:29:21.309Z,102654.31
2023-02-27T08:30:22.728Z,102654.14
2023-02-27T08:31:24.465Z,102654.02
2023-02-27T08:32:26.649Z,102656.95
2023-02-27T08:33:28.089Z,102661.52
2023-02-27T08:34:29.794Z,102663.30
2023-02-27T08:35:31.379Z,102659.64
2023-02-27T08:36:32.988Z,102662.48
2023-02-27T08:37:34.596Z,102672.00
2023-02-27T08:38:36.277Z,102669.56
2023-02-27T08:39:37.715Z,102668.48
2023-02-27T08:40:39.161Z,102675.52
2023-02-27T08:41:41.175Z,102678.73
2023-02-27T08:42:43.023Z,102679.86
2023-02-27T08:43:44.493Z,102677.48
2023-02-27T08:44:46.088Z,102683.67
2023-02-27T08:45:48.595Z,102680.38
2023-02-27T08:46:50.040Z,102685.45
2023-02-27T08:47:51.470Z,102683.25
2023-02-27T08:48:52.913Z,102681.73
2023-02-27T08:49:55.690Z,102685.66
2023-02-27T08:50:58.012Z,102689.70
2023-02-27T08:52:00.494Z,102684.83
2023-02-27T08:53:01.912Z,102683.95
2023-02-27T08:54:03.337Z,102686.77
2023-02-27T08:55:05.467Z,102688.38
2023-02-27T08:56:07.094Z,102684.95
2023-02-27T08:57:08.616Z,102686.13
2023-02-27T08:58:10.139Z,102685.60
2023-02-27T08:59:11.518Z,102685.64
2023-02-27T09:00:14.013Z,102685.19
2023-02-27T09:01:15.438Z,102685.20
2023-02-27T09:02:17.614Z,102686.08
2023-02-27T09:03:19.020Z,102684.11
2023-02-27T09:04:20.468Z,102687.13
2023-02-27T09:05:22.303Z,102684.40
2023-02-27T09:06:26.176Z,102691.38
2023-02-27T09:07:27.849Z,102690.52
2023-02-27T09:08:29.341Z,102692.35
2023-02-27T09:09:31.154Z,102694.77
2023-02-27T09:10:32.926Z,102692.24
2023-02-27T09:11:35.333Z,102695.17
2023-02-27T09:12:37.544Z,102690.15
2023-02-27T09:13:39.031Z,102691.66
2023-02-27T09:14:40.487Z,102688.38
2023-02-27T09:15:41.898Z,102688.78
2023-02-27T09:16:43.670Z,102692.30
2023-02-27T09:17:45.328Z,102689.12
2023-02-27T09:18:47.559Z,102696.50
2023-02-27T09:19:50.667Z,102696.83
2023-02-27T09:20:52.401Z,102693.27
2023-02-27T09:21:53.935Z,102698.17
2023-02-27T09:22:55.410Z,102695.09
2023-02-27T09:23:58.049Z,102703.21
2023-02-27T09:25:00.807Z,102702.44
2023-02-27T09:26:02.216Z,102704.72
2023-02-27T09:27:04.264Z,102701.11
2023-02-27T09:28:06.050Z,102704.23
2023-02-27T09:29:07.624Z,102703.92
2023-02-27T09:30:09.807Z,102703.45
2023-02-27T09:31:12.074Z,102704.48
2023-02-27T09:32:13.702Z,102702.98
2023-02-27T09:33:15.283Z,102705.80
2023-02-27T09:34:16.766Z,102707.79
2023-02-27T09:35:19.840Z,102708.54
2023-02-27T09:36:21.210Z,102710.93
2023-02-27T09:37:24.370Z,102713.02
2023-02-27T09:38:26.256Z,102714.64
2023-02-27T09:39:29.202Z,102713.81
2023-02-27T09:40:37.096Z,102710.77
2023-02-27T09:42:03.051Z,102716.21
2023-02-27T09:43:18.105Z,102719.98
2023-02-27T09:44:47.560Z,102723.71
2023-02-27T09:45:55.381Z,102722.27
2023-02-27T09:46:57.043Z,102725.45
2023-02-27T09:48:05.918Z,102726.75
2023-02-27T09:49:14.957Z,102723.92
2023-02-27T09:50:37.073Z,102725.81
2023-02-27T09:51:38.672Z,102725.91
2023-02-27T09:52:40.221Z,102729.34
2023-02-27T09:53:48.257Z,102729.60
2023-02-27T09:54:50.172Z,102725.14
2023-02-27T09:55:56.179Z,102727.36
2023-02-27T09:57:02.560Z,102728.30
2023-02-27T09:58:13.641Z,102723.14
2023-02-27T09:59:31.395Z,102722.46
2023-02-27T10:00:50.885Z,102724.86
2023-02-27T10:02:38.382Z,102724.27
2023-02-27T10:03:56.468Z,102724.38
2023-02-27T10:05:09.771Z,102724.98
2023-02-27T10:06:39.300Z,102729.34
2023-02-27T10:08:00.445Z,102734.20
2023-02-27T10:09:14.227Z,102734.96
2023-02-27T10:10:28.394Z,102734.35
2023-02-27T10:11:42.667Z,102734.77
2023-02-27T10:13:11.111Z,102739.78
2023-02-27T10:14:18.423Z,102739.57
2023-02-27T10:15:23.165Z,102740.98
2023-02-27T10:16:27.001Z,102742.95
2023-02-27T10:17:42.307Z,102742.75
2023-02-27T10:18:52.914Z,102745.02
2023-02-27T10:19:54.395Z,102744.48
2023-02-27T10:21:13.504Z,102746.42
2023-02-27T10:22:21.940Z,102745.80
2023-02-27T10:23:49.017Z,102748.02
2023-02-27T10:24:56.503Z,102750.02
2023-02-27T10:25:59.760Z,102751.35
2023-02-27T10:27:05.032Z,102747.88
2023-02-27T10:28:15.126Z,102749.15
2023-02-27T10:29:39.137Z,102753.55
2023-02-27T10:30:41.354Z,102750.98
2023-02-27T10:31:45.717Z,102751.66
2023-02-27T10:32:51.012Z,102755.92
2023-02-27T10:33:54.337Z,102754.72
2023-02-27T10:35:16.990Z,102753.26
2023-02-27T10:36:32.911Z,102755.56
2023-02-27T10:37:39.279Z,102755.01
2023-02-27T10:38:47.371Z,102755.04
2023-02-27T10:39:59.602Z,102755.67
2023-02-27T10:41:02.478Z,102757.95
2023-02-27T10:42:08.643Z,102757.23
2023-02-27T10:43:14.040Z,102754.15
2023-02-27T10:44:18.053Z,102754.95
2023-02-27T10:45:19.889Z,102756.64
2023-02-27T10:46:27.502Z,102757.34
2023-02-27T10:47:30.309Z,102757.52
2023-02-27T10:48:32.785Z,102755.80
2023-02-27T10:49:36.992Z,102757.31
2023-02-27T10:50:44.469Z,102758.14
2023-02-27T10:52:02.722Z,102756.16
2023-02-27T10:53:16.160Z,102759.45
2023-02-27T10:54:23.341Z,102762.02
2023-02-27T10:55:29.318Z,102758.41
2023-02-27T10:56:30.938Z,102757.50
2023-02-27T10:57:41.705Z,102758.48
2023-02-27T10:58:43.281Z,102759.73
2023-02-27T10:59:52.420Z,102759.50
2023-02-27T11:00:57.352Z,102766.23
2023-02-27T11:02:01.303Z,102764.67
2023-02-27T11:03:03.637Z,102762.67
2023-02-27T11:04:05.354Z,102766.02
2023-02-27T11:05:22.293Z,102767.01
2023-02-27T11:06:27.087Z,102768.11
2023-02-27T11:07:34.396Z,102767.80
2023-02-27T11:08:36.146Z,102767.62
2023-02-27T11:09:37.901Z,102772.46
2023-02-27T11:10:54.404Z,102774.40
2023-02-27T11:12:10.407Z,102770.05
2023-02-27T11:13:20.950Z,102769.67
2023-02-27T11:14:29.834Z,102775.67
2023-02-27T11:15:36.642Z,102776.11
2023-02-27T11:17:20.086Z,102780.22
2023-02-27T11:18:26.055Z,102779.21
2023-02-27T11:19:36.649Z,102779.58
2023-02-27T11:20:42.738Z,102779.54
2023-02-27T11:22:03.839Z,102780.22
2023-02-27T11:23:21.795Z,102779.48
2023-02-27T11:24:23.256Z,102782.90
2023-02-27T11:25:24.848Z,102781.84
2023-02-27T11:26:28.857Z,102782.48
2023-02-27T11:27:30.443Z,102786.98
2023-02-27T11:28:32.156Z,102788.14
2023-02-27T11:29:33.999Z,102786.58
2023-02-27T11:30:35.647Z,102790.02
2023-02-27T11:31:38.952Z,102791.07
2023-02-27T11:32:44.774Z,102791.96
2023-02-27T11:33:52.695Z,102799.91
2023-02-27T11:34:54.247Z,102794.80
2023-02-27T11:35:58.474Z,102796.58
2023-02-27T11:37:04.975Z,102797.45
2023-02-27T11:38:17.602Z,102798.08
2023-02-27T11:39:26.402Z,102795.33
2023-02-27T11:40:49.599Z,102796.59
2023-02-27T11:41:52.239Z,102795.91
2023-02-27T11:43:20.931Z,102798.46
2023-02-27T11:44:50.305Z,102795.09
2023-02-27T11:46:04.154Z,102794.79
2023-02-27T11:47:15.949Z,102798.49
2023-02-27T11:48:22.941Z,102799.23
2023-02-27T11:49:57.362Z,102797.08
2023-02-27T11:51:17.197Z,102797.88
2023-02-27T11:52:27.469Z,102798.77
2023-02-27T11:53:51.898Z,102794.88
2023-02-27T11:54:56.538Z,102799.60
2023-02-27T11:56:01.574Z,102795.55
2023-02-27T11:57:13.911Z,102793.10
2023-02-27T11:58:22.004Z,102792.30
2023-02-27T11:59:46.623Z,102789.73
2023-02-27T12:00:58.164Z,102795.55
2023-02-27T12:02:10.280Z,102794.13
2023-02-27T12:03:29.366Z,102795.35
2023-02-27T12:04:53.872Z,102798.10
2023-02-27T12:06:04.149Z,102799.72
2023-02-27T12:07:14.569Z,102798.92
2023-02-27T12:08:31.824Z,102803.25
2023-02-27T12:10:05.988Z,102801.31
2023-02-27T12:11:36.867Z,102800.07
2023-02-27T12:12:46.920Z,102801.51
2023-02-27T12:13:53.732Z,102803.48
2023-02-27T12:15:14.822Z,102803.14
2023-02-27T12:16:22.039Z,102810.09
2023-02-27T12:17:34.349Z,102810.56
2023-02-27T12:18:44.606Z,102805.80
2023-02-27T12:19:55.184Z,102809.06
2023-02-27T12:20:57.007Z,102808.05
2023-02-27T12:22:03.947Z,102808.81
2023-02-27T12:23:17.965Z,102813.83
2023-02-27T12:24:44.974Z,102809.50
2023-02-27T12:26:02.948Z,102813.33
2023-02-27T12:27:20.033Z,102812.55
2023-02-27T12:28:42.864Z,102810.24
2023-02-27T12:29:59.585Z,102814.09
2023-02-27T12:31:24.443Z,102817.38
2023-02-27T12:32:33.141Z,102815.25
2023-02-27T12:33:58.434Z,102816.72
2023-02-27T12:35:16.621Z,102819.23
2023-02-27T12:36:18.081Z,102817.59
2023-02-27T12:37:30.054Z,102821.49
2023-02-27T12:38:32.341Z,102824.89
2023-02-27T12:39:34.377Z,102820.85
2023-02-27T12:40:40.064Z,102818.83
2023-02-27T12:42:24.272Z,102819.04
2023-02-27T12:43:32.793Z,102819.63
2023-02-27T12:44:54.973Z,102821.05
2023-02-27T12:46:15.064Z,102824.80
2023-02-27T12:47:45.953Z,102822.27
2023-02-27T12:49:05.247Z,102819.77
2023-02-27T12:50:46.327Z,102820.42
2023-02-27T12:51:56.894Z,102822.82
2023-02-27T12:53:01.396Z,102828.09
2023-02-27T12:54:07.588Z,102831.04
2023-02-27T12:55:27.676Z,102827.20